Time;durP1;ratioP1;P1;durP2;ratioP2;P2;SDS_P1;SDS_P2;PMS_P1;PMS_P2;Temp;Humidity;BMP_temperature;BMP_pressure;BME280_temperature;BME280_humidity;BME280_pressure;Samples;Min_cycle;Max_cycle;Signal;HPM_P1;HPM_P2
2024/03/06 16:28:41;;;;;;;0.67;0.30;;;11.90;99.90;;;;;;4920172;23;20277;-73
2024/03/06 16:31:08;;;;;;;1.20;0.47;;;11.80;99.90;;;;;;4896896;29;20249;-73
2024/03/06 16:33:35;;;;;;;2.30;0.57;;;12.00;99.90;;;;;;4897428;29;20210;-73
2024/03/06 16:36:02;;;;;;;1.13;0.40;;;12.20;99.90;;;;;;4901159;29;20599;-73
2024/03/06 16:38:30;;;;;;;1.57;0.50;;;12.10;99.90;;;;;;4898468;29;20743;-72
2024/03/06 16:40:57;;;;;;;0.80;0.40;;;12.00;99.90;;;;;;4899306;29;20631;-73
2024/03/06 16:43:25;;;;;;;1.47;0.50;;;12.20;99.90;;;;;;4899761;29;20301;-72
2024/03/06 16:45:53;;;;;;;2.30;0.50;;;12.20;99.90;;;;;;4900506;29;20234;-72
2024/03/06 16:48:20;;;;;;;0.80;0.60;;;12.10;99.90;;;;;;4900080;29;20762;-71
2024/03/06 16:50:47;;;;;;;4.00;1.30;;;12.20;99.90;;;;;;4900196;29;20238;-71
2024/03/06 16:53:14;;;;;;;2.73;0.80;;;12.40;99.90;;;;;;4900025;29;20202;-72
2024/03/06 16:55:42;;;;;;;2.83;0.80;;;12.60;99.90;;;;;;4900547;29;20321;-73
2024/03/06 16:58:09;;;;;;;2.27;0.60;;;12.70;99.90;;;;;;4900022;29;20206;-72
2024/03/06 17:00:36;;;;;;;1.10;0.60;;;12.50;99.90;;;;;;4900453;29;20221;-72
2024/03/06 17:03:05;;;;;;;1.30;0.50;;;12.20;99.90;;;;;;4900004;29;20295;-72
2024/03/06 17:05:32;;;;;;;6.27;0.50;;;11.90;99.90;;;;;;4900104;29;20345;-73
2024/03/06 17:08:00;;;;;;;2.20;0.57;;;11.60;99.90;;;;;;4899795;29;20210;-73
2024/03/06 17:10:30;;;;;;;2.30;0.70;;;11.40;99.90;;;;;;4900100;29;20256;-73
2024/03/06 17:12:57;;;;;;;0.70;0.40;;;11.20;99.90;;;;;;4899973;29;20214;-73
2024/03/06 17:15:25;;;;;;;1.03;0.50;;;11.10;99.90;;;;;;4900094;29;20336;-73
2024/03/06 17:17:51;;;;;;;0.70;0.40;;;11.00;99.90;;;;;;4899717;29;20690;-73
2024/03/06 17:20:20;;;;;;;1.30;0.80;;;10.90;99.90;;;;;;4900717;29;20207;-73
2024/03/06 17:22:46;;;;;;;0.80;0.50;;;10.80;99.90;;;;;;4900142;29;20249;-73
2024/03/06 17:25:13;;;;;;;1.07;0.70;;;10.70;99.90;;;;;;4900224;29;20317;-73
2024/03/06 17:27:40;;;;;;;2.03;0.60;;;10.60;99.90;;;;;;4899919;29;20210;-72
2024/03/06 17:30:09;;;;;;;1.00;0.60;;;10.40;99.90;;;;;;4899430;29;20274;-72
2024/03/06 17:32:35;;;;;;;2.53;0.60;;;10.20;99.90;;;;;;4900071;29;20253;-73
2024/03/06 17:35:03;;;;;;;1.00;0.70;;;10.00;99.90;;;;;;4899598;29;20297;-74
2024/03/06 17:37:31;;;;;;;2.50;0.80;;;9.90;99.90;;;;;;4899789;29;20218;-74
2024/03/06 17:39:58;;;;;;;1.83;0.60;;;9.90;99.90;;;;;;4899809;29;20224;-74
2024/03/06 17:42:25;;;;;;;1.13;0.43;;;9.70;99.90;;;;;;4899922;29;20236;-74
2024/03/06 17:44:52;;;;;;;0.90;0.80;;;9.60;99.90;;;;;;4899670;29;20210;-74
2024/03/06 17:47:19;;;;;;;2.60;0.73;;;9.50;99.90;;;;;;4898482;29;20202;-74
2024/03/06 17:49:46;;;;;;;2.73;0.80;;;9.40;99.90;;;;;;4899948;29;20301;-74
2024/03/06 17:52:13;;;;;;;3.77;0.67;;;9.20;99.90;;;;;;4899656;29;20321;-74
2024/03/06 17:54:41;;;;;;;2.40;0.50;;;9.10;99.90;;;;;;4899690;29;20214;-74
2024/03/06 17:57:08;;;;;;;3.03;0.97;;;9.00;99.90;;;;;;4899396;29;20252;-74
2024/03/06 17:59:35;;;;;;;0.93;0.60;;;8.90;99.90;;;;;;4899200;29;20226;-74
2024/03/06 18:02:02;;;;;;;2.80;0.60;;;8.80;99.90;;;;;;4898998;29;20206;-74
2024/03/06 18:04:29;;;;;;;4.23;0.60;;;8.60;99.90;;;;;;4898899;29;20671;-75
2024/03/06 18:06:55;;;;;;;3.20;0.80;;;8.60;99.90;;;;;;4899152;29;20240;-74
2024/03/06 18:09:22;;;;;;;1.90;0.83;;;8.50;99.90;;;;;;4898720;29;20248;-75
2024/03/06 18:11:50;;;;;;;1.40;0.57;;;8.40;99.90;;;;;;4899153;29;20325;-75
2024/03/06 18:14:18;;;;;;;1.37;0.90;;;8.20;99.90;;;;;;4899006;29;20210;-75
2024/03/06 18:16:45;;;;;;;16.90;0.87;;;8.10;99.90;;;;;;4899380;29;20238;-75
2024/03/06 18:19:12;;;;;;;1.30;0.60;;;8.10;99.90;;;;;;4899068;29;20667;-75
2024/03/06 18:21:43;;;;;;;1.63;0.70;;;8.10;99.90;;;;;;4899129;29;20225;-75
2024/03/06 18:24:13;;;;;;;2.53;0.60;;;8.10;99.90;;;;;;4898772;29;20548;-75
2024/03/06 18:26:41;;;;;;;1.10;0.50;;;7.90;99.90;;;;;;4899081;29;20274;-74
2024/03/06 18:29:09;;;;;;;3.27;0.97;;;7.80;99.90;;;;;;4898653;29;20233;-75
2024/03/06 18:31:36;;;;;;;1.33;0.70;;;7.80;99.90;;;;;;4898642;29;20230;-74
2024/03/06 18:34:03;;;;;;;1.07;0.60;;;7.70;99.90;;;;;;4899168;29;20217;-74
2024/03/06 18:36:30;;;;;;;1.87;1.07;;;7.60;99.90;;;;;;4898846;29;20598;-74
2024/03/06 18:38:57;;;;;;;0.93;0.70;;;7.50;99.90;;;;;;4898856;29;20651;-75
2024/03/06 18:41:24;;;;;;;2.13;0.67;;;7.50;99.90;;;;;;4898681;29;20723;-74
2024/03/06 18:43:50;;;;;;;2.40;0.77;;;7.50;99.90;;;;;;4898670;29;20210;-74
2024/03/06 18:46:19;;;;;;;2.20;1.23;;;7.50;99.90;;;;;;4898780;29;20241;-75
2024/03/06 18:48:46;;;;;;;3.50;1.20;;;7.40;99.90;;;;;;4898914;29;20210;-75
2024/03/06 18:51:12;;;;;;;2.73;0.93;;;7.40;99.90;;;;;;4898719;29;20240;-74
2024/03/06 18:53:39;;;;;;;4.83;1.80;;;7.40;99.90;;;;;;4898493;29;20297;-74
2024/03/06 18:56:06;;;;;;;4.07;1.47;;;7.40;99.90;;;;;;4893469;29;20222;-75
2024/03/06 18:58:34;;;;;;;6.13;1.77;;;7.40;99.90;;;;;;4897915;29;20297;-75
2024/03/06 19:01:00;;;;;;;3.50;1.53;;;7.50;99.90;;;;;;4898375;29;20214;-74
2024/03/06 19:03:28;;;;;;;6.47;1.90;;;7.70;99.90;;;;;;4898120;29;20642;-74
2024/03/06 19:05:55;;;;;;;3.57;1.67;;;7.70;99.90;;;;;;4891564;29;20235;-73
2024/03/06 19:08:22;;;;;;;5.30;2.07;;;7.70;99.90;;;;;;4879744;29;20207;-75
2024/03/06 19:10:49;;;;;;;4.50;1.93;;;7.80;99.90;;;;;;4884735;29;20537;-74
2024/03/06 19:13:16;;;;;;;5.23;2.47;;;7.80;99.90;;;;;;4898338;29;20300;-73
2024/03/06 19:15:43;;;;;;;7.87;3.27;;;7.90;99.90;;;;;;4897850;29;20330;-74
2024/03/06 19:18:10;;;;;;;3.90;2.47;;;7.90;99.90;;;;;;4897609;29;20620;-73
2024/03/06 19:20:38;;;;;;;7.20;2.77;;;7.80;99.90;;;;;;4897414;29;20206;-73
2024/03/06 19:23:05;;;;;;;7.57;3.20;;;7.90;99.90;;;;;;4897800;29;20221;-73
2024/03/06 19:25:32;;;;;;;9.97;3.03;;;7.90;99.90;;;;;;4897655;29;20325;-73
2024/03/06 19:27:59;;;;;;;6.87;3.10;;;7.90;99.90;;;;;;4898261;29;20206;-74
2024/03/06 19:30:26;;;;;;;10.50;3.77;;;8.00;99.90;;;;;;4897154;29;20582;-73
2024/03/06 19:32:52;;;;;;;6.50;2.80;;;8.10;99.90;;;;;;4897648;29;20238;-74
2024/03/06 19:35:19;;;;;;;7.17;2.90;;;8.00;99.90;;;;;;4897193;29;20723;-75
2024/03/06 19:37:47;;;;;;;10.53;4.37;;;8.00;99.90;;;;;;4897554;29;20301;-74
2024/03/06 19:40:13;;;;;;;10.30;3.37;;;8.00;99.90;;;;;;4897779;29;20343;-75
2024/03/06 19:42:41;;;;;;;8.13;2.93;;;8.00;99.90;;;;;;4897892;29;20237;-74
2024/03/06 19:45:10;;;;;;;8.20;3.50;;;8.00;99.90;;;;;;4897287;29;20222;-73
2024/03/06 19:47:37;;;;;;;8.53;3.30;;;8.00;99.90;;;;;;4897304;29;20575;-73
2024/03/06 19:50:04;;;;;;;10.83;3.47;;;8.00;99.90;;;;;;4897157;29;20634;-72
2024/03/06 19:52:31;;;;;;;9.20;3.40;;;8.00;99.90;;;;;;4892707;29;20238;-74
2024/03/06 19:54:59;;;;;;;8.53;3.33;;;8.00;99.90;;;;;;4887666;29;20616;-74
2024/03/06 19:57:26;;;;;;;12.30;4.07;;;8.00;99.90;;;;;;4896936;29;20221;-75
2024/03/06 19:59:53;;;;;;;12.20;4.30;;;8.00;99.90;;;;;;4896544;29;20202;-75
2024/03/06 20:02:19;;;;;;;18.43;4.73;;;8.00;99.90;;;;;;4897546;29;20206;-74
2024/03/06 20:04:47;;;;;;;15.47;4.83;;;8.10;99.90;;;;;;4897034;29;20214;-74
2024/03/06 20:07:13;;;;;;;23.20;4.87;;;8.10;99.90;;;;;;4897585;29;20220;-74
2024/03/06 20:09:40;;;;;;;11.97;4.17;;;8.10;99.90;;;;;;4898843;29;20300;-74
2024/03/06 20:12:09;;;;;;;12.17;4.77;;;8.10;99.90;;;;;;4901014;29;20610;-74
2024/03/06 20:14:36;;;;;;;10.63;4.17;;;8.20;99.90;;;;;;4900929;29;20207;-74
2024/03/06 20:17:03;;;;;;;9.27;3.57;;;8.20;99.90;;;;;;4900849;29;20736;-75
2024/03/06 20:19:31;;;;;;;10.53;4.40;;;8.10;99.90;;;;;;4900845;29;20237;-74
2024/03/06 20:21:57;;;;;;;12.53;5.27;;;8.10;99.90;;;;;;4901124;29;20297;-73
2024/03/06 20:24:25;;;;;;;9.17;4.13;;;8.10;99.90;;;;;;4900997;29;20210;-74
2024/03/06 20:26:52;;;;;;;12.53;4.77;;;8.20;99.90;;;;;;4901059;29;20282;-74
2024/03/06 20:29:20;;;;;;;10.27;3.80;;;8.10;99.90;;;;;;4900955;29;20316;-74
2024/03/06 20:31:47;;;;;;;8.27;4.00;;;8.00;99.90;;;;;;4900621;29;20238;-74
2024/03/06 20:34:15;;;;;;;11.17;5.20;;;8.00;99.90;;;;;;4901314;29;20214;-75
2024/03/06 20:36:42;;;;;;;12.73;4.40;;;7.90;99.90;;;;;;4900982;29;20237;-74
2024/03/06 20:39:14;;;;;;;11.43;4.17;;;7.80;99.90;;;;;;4900264;29;20671;-74
2024/03/06 20:41:42;;;;;;;11.23;4.43;;;7.70;99.90;;;;;;4900281;29;20237;-74
2024/03/06 20:44:08;;;;;;;11.63;4.60;;;7.50;99.90;;;;;;4900028;29;20238;-74
2024/03/06 20:46:37;;;;;;;11.30;4.30;;;7.40;99.90;;;;;;4900476;29;20241;-73
2024/03/06 20:49:04;;;;;;;10.97;4.67;;;7.30;99.90;;;;;;4900934;29;20206;-74
2024/03/06 20:51:31;;;;;;;5.40;3.27;;;7.30;99.90;;;;;;4900319;29;20563;-74
2024/03/06 20:53:59;;;;;;;8.97;4.20;;;7.20;99.90;;;;;;4900724;29;20549;-74
2024/03/06 20:56:26;;;;;;;9.17;3.87;;;7.20;99.90;;;;;;4900811;29;20599;-73
2024/03/06 20:58:53;;;;;;;10.37;4.40;;;7.10;99.90;;;;;;4901060;29;20300;-73
2024/03/06 21:01:21;;;;;;;9.47;4.10;;;7.00;99.90;;;;;;4900008;29;20202;-73
2024/03/06 21:03:49;;;;;;;6.30;2.90;;;7.00;99.90;;;;;;4900079;29;20218;-73
2024/03/06 21:06:16;;;;;;;8.47;3.43;;;7.00;99.90;;;;;;4900429;29;20329;-73
2024/03/06 21:08:42;;;;;;;7.37;3.10;;;7.00;99.90;;;;;;4900211;29;20602;-73
2024/03/06 21:11:09;;;;;;;5.87;3.23;;;7.00;99.90;;;;;;4900639;29;20210;-73
2024/03/06 21:13:36;;;;;;;6.43;3.33;;;6.80;99.90;;;;;;4900198;29;20547;-73
2024/03/06 21:16:03;;;;;;;5.70;3.20;;;6.70;99.90;;;;;;4900287;29;20241;-74
2024/03/06 21:18:30;;;;;;;6.50;3.10;;;6.60;99.90;;;;;;4899913;29;20302;-73
2024/03/06 21:20:58;;;;;;;8.33;2.83;;;6.60;99.90;;;;;;4898932;29;20210;-73
2024/03/06 21:23:26;;;;;;;4.70;2.80;;;6.50;99.90;;;;;;4900816;29;20570;-75
2024/03/06 21:25:52;;;;;;;7.50;4.53;;;6.40;99.90;;;;;;4900225;29;20328;-73
2024/03/06 21:28:19;;;;;;;6.03;3.40;;;6.40;99.90;;;;;;4900053;29;20226;-73
2024/03/06 21:30:46;;;;;;;7.23;3.33;;;6.40;99.90;;;;;;4899726;29;20210;-74
2024/03/06 21:33:13;;;;;;;5.90;3.00;;;6.40;99.90;;;;;;4899989;29;20580;-74
2024/03/06 21:35:41;;;;;;;8.47;2.80;;;6.30;99.90;;;;;;4899798;29;20230;-73
2024/03/06 21:38:09;;;;;;;6.97;3.40;;;6.30;99.90;;;;;;4899962;29;20238;-73
2024/03/06 21:40:36;;;;;;;5.33;2.83;;;6.10;99.90;;;;;;4899525;29;20210;-73
2024/03/06 21:43:03;;;;;;;5.30;2.67;;;6.10;99.90;;;;;;4899741;29;20568;-74
2024/03/06 21:45:30;;;;;;;5.43;2.30;;;6.00;99.90;;;;;;4899415;29;20321;-73
2024/03/06 21:47:57;;;;;;;4.97;2.77;;;5.90;99.90;;;;;;4899748;29;20290;-73
2024/03/06 21:50:24;;;;;;;5.63;2.93;;;5.90;99.90;;;;;;4899448;29;20217;-74
2024/03/06 21:52:51;;;;;;;5.20;2.33;;;6.00;99.90;;;;;;4899631;29;20803;-74
2024/03/06 21:55:19;;;;;;;6.97;3.87;;;5.80;99.90;;;;;;4899222;29;20286;-74
2024/03/06 21:57:46;;;;;;;6.37;2.63;;;5.80;99.90;;;;;;4899470;29;20210;-74
2024/03/06 22:00:15;;;;;;;13.33;2.97;;;5.80;99.90;;;;;;4898968;29;20648;-74
2024/03/06 22:02:42;;;;;;;6.30;2.67;;;5.70;99.90;;;;;;4898963;29;20207;-74
2024/03/06 22:05:10;;;;;;;10.27;3.30;;;5.70;99.90;;;;;;4899151;29;20741;-74
2024/03/06 22:07:37;;;;;;;6.17;2.90;;;5.70;99.90;;;;;;4899022;29;20207;-74
2024/03/06 22:10:07;;;;;;;6.30;2.73;;;5.70;99.90;;;;;;4894333;29;20211;-74
2024/03/06 22:12:35;;;;;;;6.17;3.20;;;5.60;99.90;;;;;;4898884;29;20281;-74
